sensor_id;sensor_type;location;lat;lon;timestamp;pressure;altitude;pressure_sealevel;temperature;humidity
41264;BME280;26998;48.714;9.414;2022-11-15T00:00:50;98766.94;;;5.03;100.00
41264;BME280;26998;48.714;9.414;2022-11-15T00:03:19;98753.69;;;5.03;100.00
41264;BME280;26998;48.714;9.414;2022-11-15T00:05:46;98752.56;;;5.06;100.00
41264;BME280;26998;48.714;9.414;2022-11-15T00:08:12;98749.56;;;5.01;100.00
41264;BME280;26998;48.714;9.414;2022-11-15T00:10:39;98749.72;;;4.99;100.00
41264;BME280;26998;48.714;9.414;2022-11-15T00:13:11;98751.72;;;4.97;100.00
41264;BME280;26998;48.714;9.414;2022-11-15T00:15:39;98758.84;;;5.05;100.00
41264;BME280;26998;48.714;9.414;2022-11-15T00:18:12;98762.63;;;5.10;100.00
41264;BME280;26998;48.714;9.414;2022-11-15T00:20:39;98770.75;;;5.09;100.00
41264;BME280;26998;48.714;9.414;2022-11-15T00:23:06;98761.81;;;5.10;100.00
41264;BME280;26998;48.714;9.414;2022-11-15T00:25:33;98762.84;;;5.17;100.00
41264;BME280;26998;48.714;9.414;2022-11-15T00:28:00;98765.63;;;5.16;100.00
41264;BME280;26998;48.714;9.414;2022-11-15T00:30:27;98765.63;;;5.16;100.00
41264;BME280;26998;48.714;9.414;2022-11-15T00:32:54;98759.00;;;5.12;100.00
41264;BME280;26998;48.714;9.414;2022-11-15T00:35:21;98761.66;;;5.12;100.00
41264;BME280;26998;48.714;9.414;2022-11-15T00:37:48;98765.47;;;5.09;100.00
41264;BME280;26998;48.714;9.414;2022-11-15T00:40:15;98757.66;;;5.07;100.00
41264;BME280;26998;48.714;9.414;2022-11-15T00:42:41;98753.56;;;5.05;100.00
41264;BME280;26998;48.714;9.414;2022-11-15T00:45:09;98749.91;;;5.06;100.00
41264;BME280;26998;48.714;9.414;2022-11-15T00:47:35;98746.25;;;5.07;100.00
41264;BME280;26998;48.714;9.414;2022-11-15T00:50:02;98744.75;;;5.13;100.00
41264;BME280;26998;48.714;9.414;2022-11-15T00:52:28;98735.16;;;5.12;100.00
41264;BME280;26998;48.714;9.414;2022-11-15T00:54:54;98738.31;;;5.07;100.00
41264;BME280;26998;48.714;9.414;2022-11-15T00:57:21;98733.50;;;5.02;100.00
41264;BME280;26998;48.714;9.414;2022-11-15T00:59:47;98728.22;;;5.02;100.00
41264;BME280;26998;48.714;9.414;2022-11-15T01:02:14;98723.91;;;5.01;100.00
41264;BME280;26998;48.714;9.414;2022-11-15T01:04:40;98723.25;;;4.99;100.00
41264;BME280;26998;48.714;9.414;2022-11-15T01:07:07;98725.22;;;4.97;100.00
41264;BME280;26998;48.714;9.414;2022-11-15T01:09:33;98717.78;;;4.93;100.00
41264;BME280;26998;48.714;9.414;2022-11-15T01:12:00;98717.28;;;4.89;100.00
41264;BME280;26998;48.714;9.414;2022-11-15T01:14:27;98708.69;;;4.87;100.00
41264;BME280;26998;48.714;9.414;2022-11-15T01:16:53;98712.34;;;4.86;100.00
41264;BME280;26998;48.714;9.414;2022-11-15T01:19:20;98710.50;;;4.78;100.00
41264;BME280;26998;48.714;9.414;2022-11-15T01:21:49;98705.69;;;4.82;100.00
41264;BME280;26998;48.714;9.414;2022-11-15T01:24:16;98704.69;;;4.75;100.00
41264;BME280;26998;48.714;9.414;2022-11-15T01:26:43;98699.72;;;4.72;100.00
41264;BME280;26998;48.714;9.414;2022-11-15T01:29:09;98707.00;;;4.70;100.00
41264;BME280;26998;48.714;9.414;2022-11-15T01:31:36;98705.69;;;4.66;100.00
41264;BME280;26998;48.714;9.414;2022-11-15T01:34:02;98693.28;;;4.58;100.00
41264;BME280;26998;48.714;9.414;2022-11-15T01:36:29;98688.97;;;4.57;100.00
41264;BME280;26998;48.714;9.414;2022-11-15T01:38:57;98690.75;;;4.48;100.00
41264;BME280;26998;48.714;9.414;2022-11-15T01:41:27;98685.97;;;4.44;100.00
41264;BME280;26998;48.714;9.414;2022-11-15T01:47:21;98695.38;;;4.38;100.00
41264;BME280;26998;48.714;9.414;2022-11-15T01:49:57;98690.75;;;4.40;100.00
41264;BME280;26998;48.714;9.414;2022-11-15T01:52:26;98691.41;;;4.34;100.00
41264;BME280;26998;48.714;9.414;2022-11-15T01:57:27;98687.09;;;4.25;100.00
41264;BME280;26998;48.714;9.414;2022-11-15T01:59:54;98688.41;;;4.21;100.00
41264;BME280;26998;48.714;9.414;2022-11-15T02:02:21;98685.09;;;4.19;100.00
41264;BME280;26998;48.714;9.414;2022-11-15T02:04:48;98681.44;;;4.11;100.00
41264;BME280;26998;48.714;9.414;2022-11-15T02:07:17;98677.44;;;4.07;100.00
41264;BME280;26998;48.714;9.414;2022-11-15T02:09:44;98677.63;;;4.06;100.00
41264;BME280;26998;48.714;9.414;2022-11-15T02:12:14;98668.50;;;4.00;100.00
41264;BME280;26998;48.714;9.414;2022-11-15T02:14:44;98668.81;;;3.97;100.00
41264;BME280;26998;48.714;9.414;2022-11-15T02:17:17;98666.50;;;3.94;100.00
41264;BME280;26998;48.714;9.414;2022-11-15T02:38:22;98641.84;;;3.85;100.00
41264;BME280;26998;48.714;9.414;2022-11-15T02:40:55;98646.94;;;3.79;100.00
41264;BME280;26998;48.714;9.414;2022-11-15T02:43:33;98645.63;;;3.75;100.00
41264;BME280;26998;48.714;9.414;2022-11-15T02:46:14;98642.81;;;3.76;100.00
41264;BME280;26998;48.714;9.414;2022-11-15T02:48:43;98638.16;;;3.70;100.00
41264;BME280;26998;48.714;9.414;2022-11-15T02:51:09;98636.97;;;3.64;100.00
41264;BME280;26998;48.714;9.414;2022-11-15T02:53:38;98637.97;;;3.63;100.00
41264;BME280;26998;48.714;9.414;2022-11-15T02:56:04;98640.59;;;3.63;100.00
41264;BME280;26998;48.714;9.414;2022-11-15T03:01:03;98637.28;;;3.61;100.00
41264;BME280;26998;48.714;9.414;2022-11-15T03:06:24;98633.34;;;3.65;100.00
41264;BME280;26998;48.714;9.414;2022-11-15T03:09:09;98625.25;;;3.67;100.00
41264;BME280;26998;48.714;9.414;2022-11-15T03:11:41;98628.41;;;3.70;100.00
41264;BME280;26998;48.714;9.414;2022-11-15T03:14:29;98623.78;;;3.73;100.00
41264;BME280;26998;48.714;9.414;2022-11-15T03:17:02;98617.69;;;3.72;100.00
41264;BME280;26998;48.714;9.414;2022-11-15T03:19:40;98626.44;;;3.73;100.00
41264;BME280;26998;48.714;9.414;2022-11-15T03:22:14;98624.78;;;3.72;100.00
41264;BME280;26998;48.714;9.414;2022-11-15T03:24:43;98622.16;;;3.72;100.00
41264;BME280;26998;48.714;9.414;2022-11-15T03:27:14;98621.97;;;3.73;100.00
41264;BME280;26998;48.714;9.414;2022-11-15T03:29:47;98613.72;;;3.76;100.00
41264;BME280;26998;48.714;9.414;2022-11-15T03:32:26;98616.22;;;3.78;100.00
41264;BME280;26998;48.714;9.414;2022-11-15T03:35:00;98610.94;;;3.78;100.00
41264;BME280;26998;48.714;9.414;2022-11-15T03:37:46;98593.41;;;3.77;100.00
41264;BME280;26998;48.714;9.414;2022-11-15T03:40:16;98601.34;;;3.77;100.00
41264;BME280;26998;48.714;9.414;2022-11-15T03:42:51;98593.59;;;3.75;100.00
41264;BME280;26998;48.714;9.414;2022-11-15T03:45:27;98591.44;;;3.79;100.00
41264;BME280;26998;48.714;9.414;2022-11-15T03:48:01;98589.44;;;3.73;100.00
41264;BME280;26998;48.714;9.414;2022-11-15T03:50:30;98592.44;;;3.78;100.00
41264;BME280;26998;48.714;9.414;2022-11-15T03:52:58;98593.41;;;3.77;100.00
41264;BME280;26998;48.714;9.414;2022-11-15T03:55:25;98588.75;;;3.70;100.00
41264;BME280;26998;48.714;9.414;2022-11-15T03:57:54;98586.13;;;3.70;100.00
41264;BME280;26998;48.714;9.414;2022-11-15T04:00:22;98581.16;;;3.67;100.00
41264;BME280;26998;48.714;9.414;2022-11-15T04:02:48;98573.91;;;3.69;100.00
41264;BME280;26998;48.714;9.414;2022-11-15T04:05:15;98580.19;;;3.77;100.00
41264;BME280;26998;48.714;9.414;2022-11-15T04:07:41;98573.13;;;3.77;100.00
41264;BME280;26998;48.714;9.414;2022-11-15T04:10:10;98566.66;;;3.80;100.00
41264;BME280;26998;48.714;9.414;2022-11-15T04:12:39;98571.47;;;3.84;100.00
41264;BME280;26998;48.714;9.414;2022-11-15T04:15:08;98578.25;;;3.87;100.00
41264;BME280;26998;48.714;9.414;2022-11-15T04:17:44;98572.97;;;3.87;100.00
41264;BME280;26998;48.714;9.414;2022-11-15T04:22:41;98577.53;;;3.77;100.00
41264;BME280;26998;48.714;9.414;2022-11-15T04:25:08;98569.28;;;3.72;100.00
41264;BME280;26998;48.714;9.414;2022-11-15T04:27:34;98579.50;;;3.66;100.00
41264;BME280;26998;48.714;9.414;2022-11-15T04:30:01;98574.41;;;3.65;100.00
41264;BME280;26998;48.714;9.414;2022-11-15T04:32:27;98576.50;;;3.61;100.00
41264;BME280;26998;48.714;9.414;2022-11-15T04:34:54;98578.50;;;3.59;100.00
41264;BME280;26998;48.714;9.414;2022-11-15T04:37:20;98578.31;;;3.53;100.00
41264;BME280;26998;48.714;9.414;2022-11-15T04:39:47;98570.22;;;3.54;100.00
41264;BME280;26998;48.714;9.414;2022-11-15T04:42:13;98580.97;;;3.53;100.00
41264;BME280;26998;48.714;9.414;2022-11-15T04:44:40;98574.84;;;3.52;100.00
41264;BME280;26998;48.714;9.414;2022-11-15T04:47:06;98562.28;;;3.46;100.00
41264;BME280;26998;48.714;9.414;2022-11-15T04:49:33;98560.78;;;3.43;100.00
41264;BME280;26998;48.714;9.414;2022-11-15T04:51:59;98554.13;;;3.39;100.00
41264;BME280;26998;48.714;9.414;2022-11-15T04:54:26;98556.97;;;3.38;100.00
41264;BME280;26998;48.714;9.414;2022-11-15T04:56:53;98562.25;;;3.38;100.00
41264;BME280;26998;48.714;9.414;2022-11-15T04:59:19;98566.34;;;3.32;100.00
41264;BME280;26998;48.714;9.414;2022-11-15T05:01:46;98558.72;;;3.29;100.00
41264;BME280;26998;48.714;9.414;2022-11-15T05:04:12;98567.78;;;3.27;100.00
41264;BME280;26998;48.714;9.414;2022-11-15T05:06:39;98561.88;;;3.24;100.00
41264;BME280;26998;48.714;9.414;2022-11-15T05:09:05;98563.00;;;3.22;100.00
41264;BME280;26998;48.714;9.414;2022-11-15T05:11:31;98554.41;;;3.20;100.00
41264;BME280;26998;48.714;9.414;2022-11-15T05:13:58;98556.91;;;3.21;100.00
41264;BME280;26998;48.714;9.414;2022-11-15T05:16:24;98553.56;;;3.19;100.00
41264;BME280;26998;48.714;9.414;2022-11-15T05:18:54;98556.06;;;3.21;100.00
41264;BME280;26998;48.714;9.414;2022-11-15T05:21:22;98558.03;;;3.19;100.00
41264;BME280;26998;48.714;9.414;2022-11-15T05:23:49;98563.47;;;3.17;100.00
41264;BME280;26998;48.714;9.414;2022-11-15T05:26:16;98554.72;;;3.17;100.00
41264;BME280;26998;48.714;9.414;2022-11-15T05:28:43;98549.59;;;3.15;100.00
41264;BME280;26998;48.714;9.414;2022-11-15T05:31:12;98548.94;;;3.13;100.00
41264;BME280;26998;48.714;9.414;2022-11-15T05:33:39;98543.66;;;3.13;100.00
41264;BME280;26998;48.714;9.414;2022-11-15T05:36:20;98541.69;;;3.15;100.00
41264;BME280;26998;48.714;9.414;2022-11-15T05:38:48;98546.47;;;3.20;100.00
41264;BME280;26998;48.714;9.414;2022-11-15T05:41:18;98541.25;;;3.28;100.00
41264;BME280;26998;48.714;9.414;2022-11-15T05:43:46;98535.97;;;3.28;100.00
41264;BME280;26998;48.714;9.414;2022-11-15T05:46:15;98535.13;;;3.28;100.00
41264;BME280;26998;48.714;9.414;2022-11-15T05:48:45;98542.56;;;3.32;100.00
41264;BME280;26998;48.714;9.414;2022-11-15T05:51:14;98545.06;;;3.34;100.00
41264;BME280;26998;48.714;9.414;2022-11-15T05:53:41;98533.84;;;3.40;100.00
41264;BME280;26998;48.714;9.414;2022-11-15T05:56:09;98536.59;;;3.30;100.00
41264;BME280;26998;48.714;9.414;2022-11-15T05:58:37;98536.78;;;3.29;100.00
41264;BME280;26998;48.714;9.414;2022-11-15T06:01:04;98531.00;;;3.25;100.00
41264;BME280;26998;48.714;9.414;2022-11-15T06:03:30;98521.44;;;3.24;100.00
41264;BME280;26998;48.714;9.414;2022-11-15T06:05:57;98523.53;;;3.20;100.00
41264;BME280;26998;48.714;9.414;2022-11-15T06:08:24;98532.09;;;3.14;100.00
41264;BME280;26998;48.714;9.414;2022-11-15T06:10:50;98538.38;;;3.13;100.00
41264;BME280;26998;48.714;9.414;2022-11-15T06:13:16;98537.41;;;3.22;100.00
41264;BME280;26998;48.714;9.414;2022-11-15T06:15:43;98535.91;;;3.12;100.00
41264;BME280;26998;48.714;9.414;2022-11-15T06:18:09;98538.31;;;3.05;100.00
41264;BME280;26998;48.714;9.414;2022-11-15T06:20:36;98536.00;;;3.02;100.00
41264;BME280;26998;48.714;9.414;2022-11-15T06:23:04;98543.09;;;3.01;100.00
41264;BME280;26998;48.714;9.414;2022-11-15T06:25:31;98546.88;;;2.99;100.00
41264;BME280;26998;48.714;9.414;2022-11-15T06:27:58;98552.16;;;2.99;100.00
41264;BME280;26998;48.714;9.414;2022-11-15T06:30:25;98559.41;;;2.97;100.00
41264;BME280;26998;48.714;9.414;2022-11-15T06:32:59;98548.03;;;2.96;100.00
41264;BME280;26998;48.714;9.414;2022-11-15T06:35:27;98545.53;;;2.95;100.00
41264;BME280;26998;48.714;9.414;2022-11-15T06:37:54;98545.91;;;3.00;100.00
41264;BME280;26998;48.714;9.414;2022-11-15T06:40:20;98547.72;;;2.99;100.00
41264;BME280;26998;48.714;9.414;2022-11-15T06:42:48;98550.88;;;3.11;100.00
41264;BME280;26998;48.714;9.414;2022-11-15T06:45:14;98548.88;;;3.05;100.00
41264;BME280;26998;48.714;9.414;2022-11-15T06:47:47;98550.34;;;2.99;100.00
41264;BME280;26998;48.714;9.414;2022-11-15T06:50:13;98549.88;;;3.04;100.00
41264;BME280;26998;48.714;9.414;2022-11-15T06:52:40;98550.69;;;3.05;100.00
41264;BME280;26998;48.714;9.414;2022-11-15T06:55:07;98547.91;;;3.06;100.00
41264;BME280;26998;48.714;9.414;2022-11-15T06:57:34;98550.69;;;3.05;100.00
41264;BME280;26998;48.714;9.414;2022-11-15T07:00:03;98554.22;;;3.13;100.00
41264;BME280;26998;48.714;9.414;2022-11-15T07:02:30;98551.44;;;3.15;100.00
41264;BME280;26998;48.714;9.414;2022-11-15T07:04:57;98547.78;;;3.16;100.00
41264;BME280;26998;48.714;9.414;2022-11-15T07:07:23;98553.78;;;3.26;100.00
41264;BME280;26998;48.714;9.414;2022-11-15T07:09:50;98546.84;;;3.25;100.00
41264;BME280;26998;48.714;9.414;2022-11-15T07:12:16;98560.28;;;3.40;100.00
41264;BME280;26998;48.714;9.414;2022-11-15T07:14:43;98554.34;;;3.46;100.00
41264;BME280;26998;48.714;9.414;2022-11-15T07:17:09;98555.69;;;3.50;100.00
41264;BME280;26998;48.714;9.414;2022-11-15T07:19:35;98558.63;;;3.47;100.00
41264;BME280;26998;48.714;9.414;2022-11-15T07:22:02;98552.94;;;3.68;100.00
41264;BME280;26998;48.714;9.414;2022-11-15T07:24:29;98553.72;;;3.60;100.00
41264;BME280;26998;48.714;9.414;2022-11-15T07:26:56;98557.69;;;3.64;100.00
41264;BME280;26998;48.714;9.414;2022-11-15T07:29:22;98562.84;;;3.74;100.00
41264;BME280;26998;48.714;9.414;2022-11-15T07:31:49;98562.03;;;3.82;100.00
41264;BME280;26998;48.714;9.414;2022-11-15T07:34:15;98578.56;;;3.84;100.00
41264;BME280;26998;48.714;9.414;2022-11-15T07:36:42;98590.50;;;4.04;100.00
41264;BME280;26998;48.714;9.414;2022-11-15T07:39:08;98593.31;;;4.11;100.00
41264;BME280;26998;48.714;9.414;2022-11-15T07:41:35;98601.94;;;4.29;100.00
41264;BME280;26998;48.714;9.414;2022-11-15T07:44:01;98609.06;;;4.21;100.00
41264;BME280;26998;48.714;9.414;2022-11-15T07:46:28;98610.38;;;4.25;100.00
41264;BME280;26998;48.714;9.414;2022-11-15T07:48:54;98621.28;;;4.30;100.00
41264;BME280;26998;48.714;9.414;2022-11-15T07:51:21;98627.75;;;4.44;100.00
41264;BME280;26998;48.714;9.414;2022-11-15T07:53:47;98641.81;;;4.44;100.00
41264;BME280;26998;48.714;9.414;2022-11-15T07:56:14;98649.06;;;4.34;100.00
41264;BME280;26998;48.714;9.414;2022-11-15T07:58:41;98657.53;;;4.54;100.00
41264;BME280;26998;48.714;9.414;2022-11-15T08:01:09;98675.59;;;4.83;100.00
41264;BME280;26998;48.714;9.414;2022-11-15T08:03:37;98687.00;;;5.00;100.00
41264;BME280;26998;48.714;9.414;2022-11-15T08:06:03;98697.72;;;5.23;100.00
41264;BME280;26998;48.714;9.414;2022-11-15T08:08:30;98709.97;;;5.40;100.00
41264;BME280;26998;48.714;9.414;2022-11-15T08:10:58;98733.97;;;5.55;100.00
41264;BME280;26998;48.714;9.414;2022-11-15T08:13:24;98750.84;;;5.70;100.00
41264;BME280;26998;48.714;9.414;2022-11-15T08:15:51;98771.28;;;6.17;100.00
41264;BME280;26998;48.714;9.414;2022-11-15T08:18:22;98737.38;;;6.59;100.00
41264;BME280;26998;48.714;9.414;2022-11-15T08:20:49;98795.00;;;6.81;100.00
41264;BME280;26998;48.714;9.414;2022-11-15T08:23:15;98739.50;;;7.32;100.00
41264;BME280;26998;48.714;9.414;2022-11-15T08:25:42;98654.66;;;7.23;100.00
41264;BME280;26998;48.714;9.414;2022-11-15T08:28:09;98648.41;;;6.63;100.00
41264;BME280;26998;48.714;9.414;2022-11-15T08:30:41;98707.03;;;6.53;100.00
41264;BME280;26998;48.714;9.414;2022-11-15T08:33:13;98735.47;;;6.44;100.00
41264;BME280;26998;48.714;9.414;2022-11-15T08:35:41;98734.66;;;6.44;100.00
41264;BME280;26998;48.714;9.414;2022-11-15T08:38:07;98740.59;;;6.54;100.00
41264;BME280;26998;48.714;9.414;2022-11-15T08:40:34;98331.78;;;6.61;100.00
41264;BME280;26998;48.714;9.414;2022-11-15T08:43:07;98325.44;;;6.62;100.00
41264;BME280;26998;48.714;9.414;2022-11-15T08:45:34;98324.19;;;6.58;100.00
41264;BME280;26998;48.714;9.414;2022-11-15T08:48:02;98316.75;;;6.53;100.00
41264;BME280;26998;48.714;9.414;2022-11-15T08:50:29;98312.53;;;6.74;100.00
41264;BME280;26998;48.714;9.414;2022-11-15T08:52:56;98317.78;;;6.88;100.00
41264;BME280;26998;48.714;9.414;2022-11-15T08:55:23;98310.22;;;7.07;100.00
41264;BME280;26998;48.714;9.414;2022-11-15T08:57:50;98303.06;;;7.29;100.00
41264;BME280;26998;48.714;9.414;2022-11-15T09:00:17;98311.94;;;7.57;100.00
41264;BME280;26998;48.714;9.414;2022-11-15T09:02:43;98304.94;;;8.13;100.00
41264;BME280;26998;48.714;9.414;2022-11-15T09:05:10;98300.66;;;8.18;100.00
41264;BME280;26998;48.714;9.414;2022-11-15T09:07:36;98300.91;;;8.23;100.00
41264;BME280;26998;48.714;9.414;2022-11-15T09:10:03;98287.94;;;8.42;100.00
41264;BME280;26998;48.714;9.414;2022-11-15T09:12:30;98286.09;;;8.42;100.00
41264;BME280;26998;48.714;9.414;2022-11-15T09:14:57;98281.53;;;8.36;100.00
41264;BME280;26998;48.714;9.414;2022-11-15T09:17:23;98274.50;;;8.63;100.00
41264;BME280;26998;48.714;9.414;2022-11-15T09:19:50;98269.34;;;8.55;100.00
41264;BME280;26998;48.714;9.414;2022-11-15T09:22:17;98271.22;;;8.20;100.00
41264;BME280;26998;48.714;9.414;2022-11-15T09:24:44;98269.69;;;8.04;100.00
41264;BME280;26998;48.714;9.414;2022-11-15T09:27:10;98268.19;;;8.29;100.00
41264;BME280;26998;48.714;9.414;2022-11-15T09:29:37;98272.47;;;8.30;100.00
41264;BME280;26998;48.714;9.414;2022-11-15T09:32:03;98273.31;;;8.38;100.00
41264;BME280;26998;48.714;9.414;2022-11-15T09:34:30;98269.91;;;8.44;100.00
41264;BME280;26998;48.714;9.414;2022-11-15T09:36:57;98267.06;;;8.45;100.00
41264;BME280;26998;48.714;9.414;2022-11-15T09:39:23;98276.06;;;8.44;100.00
41264;BME280;26998;48.714;9.414;2022-11-15T09:41:58;98274.84;;;8.53;100.00
41264;BME280;26998;48.714;9.414;2022-11-15T09:44:56;98275.38;;;8.84;100.00
41264;BME280;26998;48.714;9.414;2022-11-15T09:50:30;98261.25;;;9.03;100.00
41264;BME280;26998;48.714;9.414;2022-11-15T09:52:57;98254.69;;;8.99;100.00
41264;BME280;26998;48.714;9.414;2022-11-15T09:55:41;98253.72;;;9.27;100.00
41264;BME280;26998;48.714;9.414;2022-11-15T09:58:29;98257.22;;;9.47;100.00
41264;BME280;26998;48.714;9.414;2022-11-15T10:01:04;98254.13;;;9.63;100.00
41264;BME280;26998;48.714;9.414;2022-11-15T10:03:35;98254.97;;;9.44;100.00
41264;BME280;26998;48.714;9.414;2022-11-15T10:06:04;98248.75;;;9.77;100.00
41264;BME280;26998;48.714;9.414;2022-11-15T10:08:52;98244.66;;;9.67;100.00
41264;BME280;26998;48.714;9.414;2022-11-15T10:11:28;98241.19;;;9.67;100.00
41264;BME280;26998;48.714;9.414;2022-11-15T10:14:24;98233.38;;;9.79;100.00
41264;BME280;26998;48.714;9.414;2022-11-15T10:22:45;98228.81;;;10.57;100.00
41264;BME280;26998;48.714;9.414;2022-11-15T10:27:39;98214.84;;;10.94;100.00
41264;BME280;26998;48.714;9.414;2022-11-15T10:30:13;98206.56;;;11.02;100.00
41264;BME280;26998;48.714;9.414;2022-11-15T10:32:42;98203.88;;;11.27;100.00
41264;BME280;26998;48.714;9.414;2022-11-15T10:35:28;98198.22;;;11.17;100.00
41264;BME280;26998;48.714;9.414;2022-11-15T10:38:05;98194.38;;;10.74;100.00
41264;BME280;26998;48.714;9.414;2022-11-15T10:40:32;98198.25;;;10.85;100.00
41264;BME280;26998;48.714;9.414;2022-11-15T10:45:37;98187.31;;;10.86;100.00
41264;BME280;26998;48.714;9.414;2022-11-15T10:50:42;98174.44;;;10.77;100.00
41264;BME280;26998;48.714;9.414;2022-11-15T10:53:31;98183.03;;;11.10;100.00
41264;BME280;26998;48.714;9.414;2022-11-15T10:56:06;98172.47;;;11.66;100.00
41264;BME280;26998;48.714;9.414;2022-11-15T10:58:39;98166.78;;;11.55;100.00
41264;BME280;26998;48.714;9.414;2022-11-15T11:01:12;98167.31;;;11.21;100.00
41264;BME280;26998;48.714;9.414;2022-11-15T11:03:40;98159.03;;;11.29;100.00
41264;BME280;26998;48.714;9.414;2022-11-15T11:08:36;98161.72;;;11.04;100.00
41264;BME280;26998;48.714;9.414;2022-11-15T11:11:04;98165.44;;;11.03;100.00
41264;BME280;26998;48.714;9.414;2022-11-15T11:13:32;98171.47;;;11.17;100.00
41264;BME280;26998;48.714;9.414;2022-11-15T11:18:34;98167.81;;;11.36;100.00
41264;BME280;26998;48.714;9.414;2022-11-15T11:21:16;98164.13;;;11.55;100.00
41264;BME280;26998;48.714;9.414;2022-11-15T11:24:49;98167.81;;;11.36;100.00
41264;BME280;26998;48.714;9.414;2022-11-15T11:27:16;98164.41;;;11.47;100.00
41264;BME280;26998;48.714;9.414;2022-11-15T11:30:09;98161.56;;;11.42;100.00
41264;BME280;26998;48.714;9.414;2022-11-15T11:32:50;98168.06;;;11.53;100.00
41264;BME280;26998;48.714;9.414;2022-11-15T11:35:30;98157.06;;;11.79;100.00
41264;BME280;26998;48.714;9.414;2022-11-15T11:38:31;98146.94;;;11.88;100.00
41264;BME280;26998;48.714;9.414;2022-11-15T11:41:17;98146.31;;;12.05;100.00
41264;BME280;26998;48.714;9.414;2022-11-15T11:46:59;98144.44;;;12.05;100.00
41264;BME280;26998;48.714;9.414;2022-11-15T11:49:41;98143.44;;;11.88;100.00
41264;BME280;26998;48.714;9.414;2022-11-15T11:52:21;98133.78;;;11.80;100.00
41264;BME280;26998;48.714;9.414;2022-11-15T12:00:22;98109.44;;;11.88;100.00
41264;BME280;26998;48.714;9.414;2022-11-15T12:05:59;98110.09;;;12.02;100.00
41264;BME280;26998;48.714;9.414;2022-11-15T12:08:58;98107.38;;;11.90;100.00
41264;BME280;26998;48.714;9.414;2022-11-15T12:11:37;98106.09;;;11.74;100.00
41264;BME280;26998;48.714;9.414;2022-11-15T12:14:42;98102.19;;;11.70;100.00
41264;BME280;26998;48.714;9.414;2022-11-15T12:17:10;98095.59;;;11.54;100.00
41264;BME280;26998;48.714;9.414;2022-11-15T12:19:38;98096.63;;;11.53;100.00
41264;BME280;26998;48.714;9.414;2022-11-15T12:22:20;98095.06;;;11.46;100.00
41264;BME280;26998;48.714;9.414;2022-11-15T12:24:55;98087.16;;;11.32;100.00
41264;BME280;26998;48.714;9.414;2022-11-15T12:29:58;98084.34;;;11.64;100.00
41264;BME280;26998;48.714;9.414;2022-11-15T12:32:30;98088.91;;;11.64;100.00
41264;BME280;26998;48.714;9.414;2022-11-15T12:34:58;98078.72;;;11.72;100.00
41264;BME280;26998;48.714;9.414;2022-11-15T12:42:41;98078.03;;;11.77;100.00
41264;BME280;26998;48.714;9.414;2022-11-15T12:45:36;98081.66;;;11.83;100.00
41264;BME280;26998;48.714;9.414;2022-11-15T13:06:43;98071.03;;;11.76;100.00
41264;BME280;26998;48.714;9.414;2022-11-15T13:11:56;98062.31;;;11.87;100.00
41264;BME280;26998;48.714;9.414;2022-11-15T13:14:43;98056.16;;;11.80;100.00
41264;BME280;26998;48.714;9.414;2022-11-15T13:17:23;98054.81;;;11.71;100.00
41264;BME280;26998;48.714;9.414;2022-11-15T13:22:44;98041.16;;;11.79;100.00
41264;BME280;26998;48.714;9.414;2022-11-15T13:25:30;98035.19;;;11.77;100.00
41264;BME280;26998;48.714;9.414;2022-11-15T13:28:00;98028.00;;;11.77;100.00
41264;BME280;26998;48.714;9.414;2022-11-15T13:30:33;98024.47;;;11.77;100.00
41264;BME280;26998;48.714;9.414;2022-11-15T13:33:07;98022.13;;;11.87;100.00
41264;BME280;26998;48.714;9.414;2022-11-15T13:35:38;98014.81;;;11.94;100.00
41264;BME280;26998;48.714;9.414;2022-11-15T13:38:06;98022.75;;;12.01;100.00
41264;BME280;26998;48.714;9.414;2022-11-15T13:40:43;98010.38;;;11.88;100.00
41264;BME280;26998;48.714;9.414;2022-11-15T13:46:11;98006.53;;;11.96;100.00
41264;BME280;26998;48.714;9.414;2022-11-15T13:48:40;98000.97;;;11.97;100.00
41264;BME280;26998;48.714;9.414;2022-11-15T13:52:01;98003.56;;;12.04;100.00
41264;BME280;26998;48.714;9.414;2022-11-15T13:57:11;97991.56;;;12.07;100.00
41264;BME280;26998;48.714;9.414;2022-11-15T13:59:48;97989.56;;;12.02;100.00
41264;BME280;26998;48.714;9.414;2022-11-15T14:02:18;97974.78;;;11.99;100.00
41264;BME280;26998;48.714;9.414;2022-11-15T14:04:54;97979.41;;;11.92;100.00
41264;BME280;26998;48.714;9.414;2022-11-15T14:07:23;97967.19;;;11.85;100.00
41264;BME280;26998;48.714;9.414;2022-11-15T14:09:51;97967.28;;;11.90;100.00
41264;BME280;26998;48.714;9.414;2022-11-15T14:12:32;97968.69;;;11.92;100.00
41264;BME280;26998;48.714;9.414;2022-11-15T14:15:18;97956.38;;;11.91;100.00
41264;BME280;26998;48.714;9.414;2022-11-15T14:17:45;97952.06;;;11.90;100.00
41264;BME280;26998;48.714;9.414;2022-11-15T14:22:56;97941.63;;;11.82;100.00
41264;BME280;26998;48.714;9.414;2022-11-15T14:25:28;97943.38;;;11.76;100.00
41264;BME280;26998;48.714;9.414;2022-11-15T14:30:52;97939.31;;;11.55;100.00
41264;BME280;26998;48.714;9.414;2022-11-15T14:33:21;97936.53;;;11.50;100.00
41264;BME280;26998;48.714;9.414;2022-11-15T14:35:48;97931.75;;;11.52;100.00
41264;BME280;26998;48.714;9.414;2022-11-15T14:38:15;97935.13;;;11.48;100.00
41264;BME280;26998;48.714;9.414;2022-11-15T14:40:42;97929.84;;;11.41;100.00
41264;BME280;26998;48.714;9.414;2022-11-15T14:43:10;97931.34;;;11.37;100.00
41264;BME280;26998;48.714;9.414;2022-11-15T14:45:37;97930.09;;;11.21;100.00
41264;BME280;26998;48.714;9.414;2022-11-15T14:48:04;97929.81;;;11.11;100.00
41264;BME280;26998;48.714;9.414;2022-11-15T14:50:31;97933.97;;;11.07;100.00
41264;BME280;26998;48.714;9.414;2022-11-15T14:52:58;97924.69;;;11.09;100.00
41264;BME280;26998;48.714;9.414;2022-11-15T14:55:30;97916.59;;;11.16;100.00
41264;BME280;26998;48.714;9.414;2022-11-15T14:57:58;97919.47;;;11.15;100.00
41264;BME280;26998;48.714;9.414;2022-11-15T15:00:25;97918.47;;;11.16;100.00
41264;BME280;26998;48.714;9.414;2022-11-15T15:02:59;97904.94;;;11.10;100.00